sensor_id;sensor_type;location;lat;lon;timestamp;P1;durP1;ratioP1;P2;durP2;ratioP2
65636;SDS011;52327;42.622;23.316;2023-03-14T00:00:54;3.10;;;1.90;;
65636;SDS011;52327;42.622;23.316;2023-03-14T00:03:19;2.47;;;2.25;;
65636;SDS011;52327;42.622;23.316;2023-03-14T00:05:45;3.65;;;3.05;;
65636;SDS011;52327;42.622;23.316;2023-03-14T00:08:10;2.17;;;1.63;;
65636;SDS011;52327;42.622;23.316;2023-03-14T00:10:37;1.80;;;1.42;;
65636;SDS011;52327;42.622;23.316;2023-03-14T00:13:02;4.28;;;1.88;;
65636;SDS011;52327;42.622;23.316;2023-03-14T00:15:28;2.90;;;1.77;;
65636;SDS011;52327;42.622;23.316;2023-03-14T00:17:53;1.08;;;0.98;;
65636;SDS011;52327;42.622;23.316;2023-03-14T00:20:19;2.50;;;1.70;;
65636;SDS011;52327;42.622;23.316;2023-03-14T00:22:44;2.10;;;1.60;;
65636;SDS011;52327;42.622;23.316;2023-03-14T00:25:10;4.20;;;2.35;;
65636;SDS011;52327;42.622;23.316;2023-03-14T00:27:36;4.90;;;2.05;;
65636;SDS011;52327;42.622;23.316;2023-03-14T00:30:02;6.10;;;1.35;;
65636;SDS011;52327;42.622;23.316;2023-03-14T00:32:29;0.93;;;0.82;;
65636;SDS011;52327;42.622;23.316;2023-03-14T00:34:54;1.05;;;1.00;;
65636;SDS011;52327;42.622;23.316;2023-03-14T00:37:20;4.97;;;1.50;;
65636;SDS011;52327;42.622;23.316;2023-03-14T00:39:45;1.55;;;1.45;;
65636;SDS011;52327;42.622;23.316;2023-03-14T00:42:11;1.67;;;1.15;;
65636;SDS011;52327;42.622;23.316;2023-03-14T00:44:36;1.65;;;1.30;;
65636;SDS011;52327;42.622;23.316;2023-03-14T00:47:02;4.78;;;1.70;;
65636;SDS011;52327;42.622;23.316;2023-03-14T00:49:27;1.60;;;1.45;;
65636;SDS011;52327;42.622;23.316;2023-03-14T00:51:53;2.50;;;1.35;;
65636;SDS011;52327;42.622;23.316;2023-03-14T00:54:19;1.55;;;1.20;;
65636;SDS011;52327;42.622;23.316;2023-03-14T00:56:44;1.65;;;1.45;;
65636;SDS011;52327;42.622;23.316;2023-03-14T00:59:10;1.50;;;1.40;;
65636;SDS011;52327;42.622;23.316;2023-03-14T01:01:35;5.90;;;3.03;;
65636;SDS011;52327;42.622;23.316;2023-03-14T01:04:01;2.65;;;1.80;;
65636;SDS011;52327;42.622;23.316;2023-03-14T01:06:27;1.98;;;1.17;;
65636;SDS011;52327;42.622;23.316;2023-03-14T01:08:54;5.43;;;2.67;;
65636;SDS011;52327;42.622;23.316;2023-03-14T01:11:27;3.55;;;2.42;;
65636;SDS011;52327;42.622;23.316;2023-03-14T01:13:55;2.78;;;1.52;;
65636;SDS011;52327;42.622;23.316;2023-03-14T01:16:21;3.58;;;1.70;;
65636;SDS011;52327;42.622;23.316;2023-03-14T01:18:48;4.20;;;1.70;;
65636;SDS011;52327;42.622;23.316;2023-03-14T01:21:16;7.68;;;2.17;;
65636;SDS011;52327;42.622;23.316;2023-03-14T01:23:44;3.05;;;1.60;;
65636;SDS011;52327;42.622;23.316;2023-03-14T01:26:11;3.83;;;1.73;;
65636;SDS011;52327;42.622;23.316;2023-03-14T01:28:38;2.42;;;1.77;;
65636;SDS011;52327;42.622;23.316;2023-03-14T01:31:07;6.68;;;1.45;;
65636;SDS011;52327;42.622;23.316;2023-03-14T01:33:34;3.63;;;2.30;;
65636;SDS011;52327;42.622;23.316;2023-03-14T01:36:00;2.55;;;2.25;;
65636;SDS011;52327;42.622;23.316;2023-03-14T01:38:27;2.97;;;1.90;;
65636;SDS011;52327;42.622;23.316;2023-03-14T01:40:53;3.40;;;2.10;;
65636;SDS011;52327;42.622;23.316;2023-03-14T01:43:19;4.55;;;2.78;;
65636;SDS011;52327;42.622;23.316;2023-03-14T01:48:39;1.05;;;0.82;;
65636;SDS011;52327;42.622;23.316;2023-03-14T01:51:08;3.92;;;2.55;;
65636;SDS011;52327;42.622;23.316;2023-03-14T01:53:37;2.28;;;1.30;;
65636;SDS011;52327;42.622;23.316;2023-03-14T01:56:04;8.85;;;3.38;;
65636;SDS011;52327;42.622;23.316;2023-03-14T01:58:30;6.07;;;1.98;;
65636;SDS011;52327;42.622;23.316;2023-03-14T02:00:59;3.05;;;2.03;;
65636;SDS011;52327;42.622;23.316;2023-03-14T02:03:26;2.33;;;1.63;;
65636;SDS011;52327;42.622;23.316;2023-03-14T02:05:54;2.72;;;1.88;;
65636;SDS011;52327;42.622;23.316;2023-03-14T02:08:23;2.03;;;1.45;;
65636;SDS011;52327;42.622;23.316;2023-03-14T02:10:49;1.80;;;1.50;;
65636;SDS011;52327;42.622;23.316;2023-03-14T02:13:16;2.13;;;1.65;;
65636;SDS011;52327;42.622;23.316;2023-03-14T02:15:43;1.60;;;1.50;;
65636;SDS011;52327;42.622;23.316;2023-03-14T02:18:09;4.05;;;2.00;;
65636;SDS011;52327;42.622;23.316;2023-03-14T02:23:13;14.38;;;1.85;;
65636;SDS011;52327;42.622;23.316;2023-03-14T02:28:16;1.52;;;1.42;;
65636;SDS011;52327;42.622;23.316;2023-03-14T02:30:42;1.65;;;1.50;;
65636;SDS011;52327;42.622;23.316;2023-03-14T02:33:09;2.05;;;1.73;;
65636;SDS011;52327;42.622;23.316;2023-03-14T02:35:51;0.65;;;0.57;;
65636;SDS011;52327;42.622;23.316;2023-03-14T02:41:04;1.00;;;0.95;;
65636;SDS011;52327;42.622;23.316;2023-03-14T02:43:30;4.07;;;1.92;;
65636;SDS011;52327;42.622;23.316;2023-03-14T02:45:56;3.15;;;1.17;;
65636;SDS011;52327;42.622;23.316;2023-03-14T02:48:24;4.10;;;2.35;;
65636;SDS011;52327;42.622;23.316;2023-03-14T02:50:52;3.72;;;1.70;;
65636;SDS011;52327;42.622;23.316;2023-03-14T02:53:25;2.00;;;1.40;;
65636;SDS011;52327;42.622;23.316;2023-03-14T02:55:52;3.08;;;1.70;;
65636;SDS011;52327;42.622;23.316;2023-03-14T02:58:18;5.13;;;2.75;;
65636;SDS011;52327;42.622;23.316;2023-03-14T03:00:44;3.92;;;2.00;;
65636;SDS011;52327;42.622;23.316;2023-03-14T03:03:10;2.35;;;1.25;;
65636;SDS011;52327;42.622;23.316;2023-03-14T03:05:36;1.77;;;1.58;;
65636;SDS011;52327;42.622;23.316;2023-03-14T03:08:01;4.10;;;1.92;;
65636;SDS011;52327;42.622;23.316;2023-03-14T03:10:28;4.38;;;2.03;;
65636;SDS011;52327;42.622;23.316;2023-03-14T03:12:54;2.05;;;1.08;;
65636;SDS011;52327;42.622;23.316;2023-03-14T03:15:19;3.35;;;1.38;;
65636;SDS011;52327;42.622;23.316;2023-03-14T03:17:44;2.50;;;1.05;;
65636;SDS011;52327;42.622;23.316;2023-03-14T03:20:10;2.97;;;1.88;;
65636;SDS011;52327;42.622;23.316;2023-03-14T03:22:36;6.88;;;4.05;;
65636;SDS011;52327;42.622;23.316;2023-03-14T03:25:03;4.78;;;1.15;;
65636;SDS011;52327;42.622;23.316;2023-03-14T03:27:33;7.55;;;2.00;;
65636;SDS011;52327;42.622;23.316;2023-03-14T03:30:00;2.20;;;1.30;;
65636;SDS011;52327;42.622;23.316;2023-03-14T03:32:29;3.00;;;1.40;;
65636;SDS011;52327;42.622;23.316;2023-03-14T03:34:59;0.85;;;0.82;;
65636;SDS011;52327;42.622;23.316;2023-03-14T03:37:24;3.88;;;1.58;;
65636;SDS011;52327;42.622;23.316;2023-03-14T03:39:50;1.02;;;0.95;;
65636;SDS011;52327;42.622;23.316;2023-03-14T03:42:16;2.38;;;1.67;;
65636;SDS011;52327;42.622;23.316;2023-03-14T03:44:42;1.17;;;0.85;;
65636;SDS011;52327;42.622;23.316;2023-03-14T03:47:08;1.38;;;1.08;;
65636;SDS011;52327;42.622;23.316;2023-03-14T03:49:33;1.67;;;1.58;;
65636;SDS011;52327;42.622;23.316;2023-03-14T03:51:59;1.77;;;1.20;;
65636;SDS011;52327;42.622;23.316;2023-03-14T03:54:25;0.60;;;0.52;;
65636;SDS011;52327;42.622;23.316;2023-03-14T03:56:50;0.60;;;0.60;;
65636;SDS011;52327;42.622;23.316;2023-03-14T03:59:16;1.80;;;1.45;;
65636;SDS011;52327;42.622;23.316;2023-03-14T04:01:42;0.98;;;0.98;;
65636;SDS011;52327;42.622;23.316;2023-03-14T04:04:07;1.70;;;1.45;;
65636;SDS011;52327;42.622;23.316;2023-03-14T04:06:33;2.17;;;0.88;;
65636;SDS011;52327;42.622;23.316;2023-03-14T04:08:59;2.03;;;1.20;;
65636;SDS011;52327;42.622;23.316;2023-03-14T04:11:24;2.83;;;1.30;;
65636;SDS011;52327;42.622;23.316;2023-03-14T04:13:50;2.03;;;0.88;;
65636;SDS011;52327;42.622;23.316;2023-03-14T04:16:23;1.38;;;1.13;;
65636;SDS011;52327;42.622;23.316;2023-03-14T04:18:49;1.90;;;0.90;;
65636;SDS011;52327;42.622;23.316;2023-03-14T04:21:15;0.98;;;0.65;;
65636;SDS011;52327;42.622;23.316;2023-03-14T04:23:41;1.75;;;1.45;;
65636;SDS011;52327;42.622;23.316;2023-03-14T04:26:07;1.10;;;0.80;;
65636;SDS011;52327;42.622;23.316;2023-03-14T04:28:32;2.53;;;1.88;;
65636;SDS011;52327;42.622;23.316;2023-03-14T04:30:58;3.47;;;2.20;;
65636;SDS011;52327;42.622;23.316;2023-03-14T04:33:23;3.97;;;1.73;;
65636;SDS011;52327;42.622;23.316;2023-03-14T04:35:52;3.38;;;1.08;;
65636;SDS011;52327;42.622;23.316;2023-03-14T04:38:19;2.28;;;1.80;;
65636;SDS011;52327;42.622;23.316;2023-03-14T04:40:45;2.85;;;2.10;;
65636;SDS011;52327;42.622;23.316;2023-03-14T04:43:10;4.78;;;2.05;;
65636;SDS011;52327;42.622;23.316;2023-03-14T04:45:36;1.38;;;1.23;;
65636;SDS011;52327;42.622;23.316;2023-03-14T04:48:05;1.13;;;1.05;;
65636;SDS011;52327;42.622;23.316;2023-03-14T04:50:31;1.30;;;1.10;;
65636;SDS011;52327;42.622;23.316;2023-03-14T04:52:56;6.72;;;1.80;;
65636;SDS011;52327;42.622;23.316;2023-03-14T04:55:22;1.17;;;1.10;;
65636;SDS011;52327;42.622;23.316;2023-03-14T04:57:47;1.88;;;1.08;;
65636;SDS011;52327;42.622;23.316;2023-03-14T05:00:12;2.17;;;1.98;;
65636;SDS011;52327;42.622;23.316;2023-03-14T05:02:38;3.80;;;1.13;;
65636;SDS011;52327;42.622;23.316;2023-03-14T05:05:04;1.48;;;1.38;;
65636;SDS011;52327;42.622;23.316;2023-03-14T05:07:29;1.45;;;1.00;;
65636;SDS011;52327;42.622;23.316;2023-03-14T05:09:55;1.60;;;1.42;;
65636;SDS011;52327;42.622;23.316;2023-03-14T05:12:20;1.13;;;1.00;;
65636;SDS011;52327;42.622;23.316;2023-03-14T05:14:46;0.50;;;0.43;;
65636;SDS011;52327;42.622;23.316;2023-03-14T05:17:11;2.70;;;1.40;;
65636;SDS011;52327;42.622;23.316;2023-03-14T05:19:39;1.38;;;0.85;;
65636;SDS011;52327;42.622;23.316;2023-03-14T05:22:05;4.93;;;2.72;;
65636;SDS011;52327;42.622;23.316;2023-03-14T05:24:31;2.13;;;1.85;;
65636;SDS011;52327;42.622;23.316;2023-03-14T05:26:56;1.75;;;1.30;;
65636;SDS011;52327;42.622;23.316;2023-03-14T05:29:22;7.07;;;3.20;;
65636;SDS011;52327;42.622;23.316;2023-03-14T05:31:47;4.03;;;1.98;;
65636;SDS011;52327;42.622;23.316;2023-03-14T05:34:12;3.88;;;2.90;;
65636;SDS011;52327;42.622;23.316;2023-03-14T05:36:38;3.42;;;2.05;;
65636;SDS011;52327;42.622;23.316;2023-03-14T05:39:03;4.80;;;2.25;;
65636;SDS011;52327;42.622;23.316;2023-03-14T05:41:29;4.22;;;2.65;;
65636;SDS011;52327;42.622;23.316;2023-03-14T05:43:54;8.48;;;2.05;;
65636;SDS011;52327;42.622;23.316;2023-03-14T05:46:19;5.55;;;3.15;;
65636;SDS011;52327;42.622;23.316;2023-03-14T05:48:45;5.18;;;3.70;;
65636;SDS011;52327;42.622;23.316;2023-03-14T05:51:10;3.65;;;3.35;;
65636;SDS011;52327;42.622;23.316;2023-03-14T05:53:36;5.78;;;2.75;;
65636;SDS011;52327;42.622;23.316;2023-03-14T05:56:01;8.00;;;2.50;;
65636;SDS011;52327;42.622;23.316;2023-03-14T05:58:27;3.72;;;2.90;;
65636;SDS011;52327;42.622;23.316;2023-03-14T06:00:52;5.63;;;3.25;;
65636;SDS011;52327;42.622;23.316;2023-03-14T06:03:17;3.97;;;3.28;;
65636;SDS011;52327;42.622;23.316;2023-03-14T06:05:43;6.45;;;3.42;;
65636;SDS011;52327;42.622;23.316;2023-03-14T06:08:08;8.30;;;3.08;;
65636;SDS011;52327;42.622;23.316;2023-03-14T06:10:34;4.28;;;2.03;;
65636;SDS011;52327;42.622;23.316;2023-03-14T06:13:01;3.25;;;2.35;;
65636;SDS011;52327;42.622;23.316;2023-03-14T06:15:26;3.67;;;2.55;;
65636;SDS011;52327;42.622;23.316;2023-03-14T06:17:53;8.77;;;3.22;;
65636;SDS011;52327;42.622;23.316;2023-03-14T06:20:22;6.65;;;3.08;;
65636;SDS011;52327;42.622;23.316;2023-03-14T06:22:47;3.55;;;2.38;;
65636;SDS011;52327;42.622;23.316;2023-03-14T06:25:12;9.65;;;3.33;;
65636;SDS011;52327;42.622;23.316;2023-03-14T06:27:38;8.20;;;4.15;;
65636;SDS011;52327;42.622;23.316;2023-03-14T06:30:03;12.25;;;3.78;;
65636;SDS011;52327;42.622;23.316;2023-03-14T06:32:29;7.28;;;3.97;;
65636;SDS011;52327;42.622;23.316;2023-03-14T06:34:55;5.93;;;2.72;;
65636;SDS011;52327;42.622;23.316;2023-03-14T06:37:22;5.10;;;2.75;;
65636;SDS011;52327;42.622;23.316;2023-03-14T06:39:47;6.57;;;4.32;;
65636;SDS011;52327;42.622;23.316;2023-03-14T06:42:13;5.70;;;4.18;;
65636;SDS011;52327;42.622;23.316;2023-03-14T06:44:38;2.75;;;2.38;;
65636;SDS011;52327;42.622;23.316;2023-03-14T06:47:04;5.20;;;2.53;;
65636;SDS011;52327;42.622;23.316;2023-03-14T06:49:29;4.68;;;3.13;;
65636;SDS011;52327;42.622;23.316;2023-03-14T06:51:54;6.68;;;3.42;;
65636;SDS011;52327;42.622;23.316;2023-03-14T06:54:20;6.82;;;3.35;;
65636;SDS011;52327;42.622;23.316;2023-03-14T06:56:45;11.60;;;4.70;;
65636;SDS011;52327;42.622;23.316;2023-03-14T06:59:11;6.97;;;3.63;;
65636;SDS011;52327;42.622;23.316;2023-03-14T07:01:36;5.93;;;4.10;;
65636;SDS011;52327;42.622;23.316;2023-03-14T07:04:02;7.57;;;4.20;;
65636;SDS011;52327;42.622;23.316;2023-03-14T07:06:27;5.68;;;3.63;;
65636;SDS011;52327;42.622;23.316;2023-03-14T07:08:56;7.72;;;4.95;;
65636;SDS011;52327;42.622;23.316;2023-03-14T07:11:22;4.60;;;3.88;;
65636;SDS011;52327;42.622;23.316;2023-03-14T07:13:48;5.93;;;4.25;;
65636;SDS011;52327;42.622;23.316;2023-03-14T07:16:13;4.53;;;3.30;;
65636;SDS011;52327;42.622;23.316;2023-03-14T07:18:39;4.78;;;3.47;;
65636;SDS011;52327;42.622;23.316;2023-03-14T07:21:05;3.92;;;2.83;;
65636;SDS011;52327;42.622;23.316;2023-03-14T07:23:32;3.85;;;1.95;;
65636;SDS011;52327;42.622;23.316;2023-03-14T07:25:59;4.25;;;3.00;;
65636;SDS011;52327;42.622;23.316;2023-03-14T07:28:25;4.95;;;3.05;;
65636;SDS011;52327;42.622;23.316;2023-03-14T07:30:52;4.63;;;2.80;;
65636;SDS011;52327;42.622;23.316;2023-03-14T07:33:18;4.72;;;1.83;;
65636;SDS011;52327;42.622;23.316;2023-03-14T07:35:43;7.25;;;3.35;;
65636;SDS011;52327;42.622;23.316;2023-03-14T07:38:09;7.63;;;2.08;;
65636;SDS011;52327;42.622;23.316;2023-03-14T07:40:34;1.50;;;1.38;;
65636;SDS011;52327;42.622;23.316;2023-03-14T07:43:00;5.22;;;1.88;;
65636;SDS011;52327;42.622;23.316;2023-03-14T07:45:25;2.30;;;1.35;;
65636;SDS011;52327;42.622;23.316;2023-03-14T07:47:51;5.38;;;2.78;;
65636;SDS011;52327;42.622;23.316;2023-03-14T07:50:16;4.72;;;2.95;;
65636;SDS011;52327;42.622;23.316;2023-03-14T07:52:41;2.33;;;2.10;;
65636;SDS011;52327;42.622;23.316;2023-03-14T07:55:07;1.80;;;1.65;;
65636;SDS011;52327;42.622;23.316;2023-03-14T07:57:33;4.65;;;2.90;;
65636;SDS011;52327;42.622;23.316;2023-03-14T07:59:58;2.45;;;1.67;;
65636;SDS011;52327;42.622;23.316;2023-03-14T08:02:23;2.90;;;1.67;;
65636;SDS011;52327;42.622;23.316;2023-03-14T08:04:49;2.90;;;1.60;;
65636;SDS011;52327;42.622;23.316;2023-03-14T08:07:15;4.57;;;2.50;;
65636;SDS011;52327;42.622;23.316;2023-03-14T08:09:40;2.42;;;1.63;;
65636;SDS011;52327;42.622;23.316;2023-03-14T08:12:06;1.88;;;1.55;;
65636;SDS011;52327;42.622;23.316;2023-03-14T08:14:32;4.75;;;2.38;;
65636;SDS011;52327;42.622;23.316;2023-03-14T08:16:58;2.83;;;2.53;;
65636;SDS011;52327;42.622;23.316;2023-03-14T08:19:23;1.85;;;1.55;;
65636;SDS011;52327;42.622;23.316;2023-03-14T08:21:50;9.38;;;2.60;;
65636;SDS011;52327;42.622;23.316;2023-03-14T08:24:16;7.88;;;2.92;;
65636;SDS011;52327;42.622;23.316;2023-03-14T08:26:41;18.13;;;9.65;;
65636;SDS011;52327;42.622;23.316;2023-03-14T08:29:07;14.68;;;7.13;;
65636;SDS011;52327;42.622;23.316;2023-03-14T08:31:33;7.18;;;4.25;;
65636;SDS011;52327;42.622;23.316;2023-03-14T08:34:00;7.18;;;3.20;;
65636;SDS011;52327;42.622;23.316;2023-03-14T08:36:26;4.18;;;2.33;;
65636;SDS011;52327;42.622;23.316;2023-03-14T08:38:52;2.83;;;1.90;;
65636;SDS011;52327;42.622;23.316;2023-03-14T08:41:17;6.15;;;3.05;;
65636;SDS011;52327;42.622;23.316;2023-03-14T08:43:43;4.10;;;2.13;;
65636;SDS011;52327;42.622;23.316;2023-03-14T08:46:08;3.90;;;2.00;;
65636;SDS011;52327;42.622;23.316;2023-03-14T08:48:34;4.38;;;3.15;;
65636;SDS011;52327;42.622;23.316;2023-03-14T08:51:11;5.78;;;3.15;;
65636;SDS011;52327;42.622;23.316;2023-03-14T08:53:38;4.05;;;2.40;;
65636;SDS011;52327;42.622;23.316;2023-03-14T08:56:04;5.75;;;2.25;;
65636;SDS011;52327;42.622;23.316;2023-03-14T08:58:31;4.03;;;2.33;;
65636;SDS011;52327;42.622;23.316;2023-03-14T09:00:57;4.03;;;2.53;;
65636;SDS011;52327;42.622;23.316;2023-03-14T09:03:22;4.30;;;2.33;;
65636;SDS011;52327;42.622;23.316;2023-03-14T09:05:49;5.05;;;3.55;;
65636;SDS011;52327;42.622;23.316;2023-03-14T09:08:15;3.03;;;2.22;;
65636;SDS011;52327;42.622;23.316;2023-03-14T09:10:40;5.55;;;2.60;;
65636;SDS011;52327;42.622;23.316;2023-03-14T09:13:06;6.13;;;3.22;;
65636;SDS011;52327;42.622;23.316;2023-03-14T09:15:31;4.88;;;2.90;;
65636;SDS011;52327;42.622;23.316;2023-03-14T09:17:57;3.28;;;1.92;;
65636;SDS011;52327;42.622;23.316;2023-03-14T09:20:23;2.85;;;2.33;;
65636;SDS011;52327;42.622;23.316;2023-03-14T09:22:48;6.50;;;3.15;;
65636;SDS011;52327;42.622;23.316;2023-03-14T09:25:13;4.80;;;2.95;;
65636;SDS011;52327;42.622;23.316;2023-03-14T09:27:39;4.00;;;2.40;;
65636;SDS011;52327;42.622;23.316;2023-03-14T09:30:04;9.43;;;3.53;;
65636;SDS011;52327;42.622;23.316;2023-03-14T09:32:30;5.05;;;3.00;;
65636;SDS011;52327;42.622;23.316;2023-03-14T09:34:56;6.72;;;2.70;;
65636;SDS011;52327;42.622;23.316;2023-03-14T09:37:22;4.60;;;2.60;;
65636;SDS011;52327;42.622;23.316;2023-03-14T09:39:47;4.88;;;3.60;;
65636;SDS011;52327;42.622;23.316;2023-03-14T09:42:14;6.32;;;2.97;;
65636;SDS011;52327;42.622;23.316;2023-03-14T09:44:46;6.03;;;3.88;;
65636;SDS011;52327;42.622;23.316;2023-03-14T09:47:18;3.88;;;2.42;;
65636;SDS011;52327;42.622;23.316;2023-03-14T09:49:45;4.22;;;2.22;;
65636;SDS011;52327;42.622;23.316;2023-03-14T09:55:03;7.63;;;3.83;;
65636;SDS011;52327;42.622;23.316;2023-03-14T09:57:32;8.15;;;3.17;;
65636;SDS011;52327;42.622;23.316;2023-03-14T10:00:02;3.95;;;3.13;;
65636;SDS011;52327;42.622;23.316;2023-03-14T10:02:39;10.43;;;3.47;;
65636;SDS011;52327;42.622;23.316;2023-03-14T10:05:16;5.68;;;3.95;;
65636;SDS011;52327;42.622;23.316;2023-03-14T10:07:43;4.97;;;2.78;;
65636;SDS011;52327;42.622;23.316;2023-03-14T10:10:13;7.22;;;3.17;;
65636;SDS011;52327;42.622;23.316;2023-03-14T10:12:54;7.50;;;3.72;;
65636;SDS011;52327;42.622;23.316;2023-03-14T10:15:30;6.25;;;3.25;;
65636;SDS011;52327;42.622;23.316;2023-03-14T10:17:58;8.43;;;3.72;;
65636;SDS011;52327;42.622;23.316;2023-03-14T10:25:33;6.35;;;3.45;;
65636;SDS011;52327;42.622;23.316;2023-03-14T10:28:00;4.35;;;2.78;;
65636;SDS011;52327;42.622;23.316;2023-03-14T10:30:38;5.38;;;3.35;;
65636;SDS011;52327;42.622;23.316;2023-03-14T10:38:22;4.03;;;2.85;;
65636;SDS011;52327;42.622;23.316;2023-03-14T10:40:51;6.78;;;2.97;;
65636;SDS011;52327;42.622;23.316;2023-03-14T10:43:31;11.07;;;3.28;;
65636;SDS011;52327;42.622;23.316;2023-03-14T10:45:59;6.55;;;3.72;;
65636;SDS011;52327;42.622;23.316;2023-03-14T10:48:31;5.45;;;2.40;;
65636;SDS011;52327;42.622;23.316;2023-03-14T10:51:02;4.03;;;2.42;;
65636;SDS011;52327;42.622;23.316;2023-03-14T10:54:12;4.07;;;2.30;;
65636;SDS011;52327;42.622;23.316;2023-03-14T10:56:43;4.35;;;2.13;;
65636;SDS011;52327;42.622;23.316;2023-03-14T10:59:15;3.78;;;1.98;;
65636;SDS011;52327;42.622;23.316;2023-03-14T11:07:16;4.10;;;1.98;;
65636;SDS011;52327;42.622;23.316;2023-03-14T11:14:57;4.28;;;2.10;;
65636;SDS011;52327;42.622;23.316;2023-03-14T11:17:45;2.42;;;1.95;;
65636;SDS011;52327;42.622;23.316;2023-03-14T11:37:07;5.10;;;2.45;;
65636;SDS011;52327;42.622;23.316;2023-03-14T11:39:18;3.90;;;2.28;;
65636;SDS011;52327;42.622;23.316;2023-03-14T11:41:53;2.55;;;1.92;;
65636;SDS011;52327;42.622;23.316;2023-03-14T11:44:23;3.53;;;1.45;;
65636;SDS011;52327;42.622;23.316;2023-03-14T11:46:55;3.25;;;2.13;;
65636;SDS011;52327;42.622;23.316;2023-03-14T11:51:55;2.53;;;1.45;;
65636;SDS011;52327;42.622;23.316;2023-03-14T11:54:31;2.28;;;1.42;;
65636;SDS011;52327;42.622;23.316;2023-03-14T11:56:59;1.33;;;1.20;;
65636;SDS011;52327;42.622;23.316;2023-03-14T12:01:57;2.20;;;1.35;;
65636;SDS011;52327;42.622;23.316;2023-03-14T12:07:29;4.78;;;2.13;;
65636;SDS011;52327;42.622;23.316;2023-03-14T12:09:57;2.53;;;1.35;;
65636;SDS011;52327;42.622;23.316;2023-03-14T12:12:24;2.30;;;1.40;;
65636;SDS011;52327;42.622;23.316;2023-03-14T12:14:52;2.65;;;1.48;;
65636;SDS011;52327;42.622;23.316;2023-03-14T12:19:44;2.17;;;1.02;;
65636;SDS011;52327;42.622;23.316;2023-03-14T12:24:50;2.55;;;1.25;;
65636;SDS011;52327;42.622;23.316;2023-03-14T12:43:42;3.08;;;1.35;;
65636;SDS011;52327;42.622;23.316;2023-03-14T12:49:04;1.42;;;1.23;;
65636;SDS011;52327;42.622;23.316;2023-03-14T12:51:37;2.10;;;0.95;;
65636;SDS011;52327;42.622;23.316;2023-03-14T12:56:54;1.88;;;1.25;;
65636;SDS011;52327;42.622;23.316;2023-03-14T13:00:00;3.85;;;1.58;;
65636;SDS011;52327;42.622;23.316;2023-03-14T13:02:29;1.88;;;1.35;;
65636;SDS011;52327;42.622;23.316;2023-03-14T13:05:08;1.95;;;1.20;;
65636;SDS011;52327;42.622;23.316;2023-03-14T13:13:19;1.67;;;1.13;;
65636;SDS011;52327;42.622;23.316;2023-03-14T13:15:39;4.70;;;1.95;;
65636;SDS011;52327;42.622;23.316;2023-03-14T13:20:46;1.52;;;1.23;;
65636;SDS011;52327;42.622;23.316;2023-03-14T13:23:27;2.10;;;1.40;;
65636;SDS011;52327;42.622;23.316;2023-03-14T13:25:54;2.28;;;1.42;;
65636;SDS011;52327;42.622;23.316;2023-03-14T13:28:21;3.40;;;1.52;;
65636;SDS011;52327;42.622;23.316;2023-03-14T13:30:47;2.00;;;1.48;;
65636;SDS011;52327;42.622;23.316;2023-03-14T13:33:23;1.63;;;1.20;;
65636;SDS011;52327;42.622;23.316;2023-03-14T13:35:54;3.17;;;1.58;;
65636;SDS011;52327;42.622;23.316;2023-03-14T13:38:22;1.30;;;1.08;;
65636;SDS011;52327;42.622;23.316;2023-03-14T13:40:51;2.08;;;1.00;;
65636;SDS011;52327;42.622;23.316;2023-03-14T13:43:26;2.88;;;1.13;;
65636;SDS011;52327;42.622;23.316;2023-03-14T13:45:56;1.70;;;1.20;;
65636;SDS011;52327;42.622;23.316;2023-03-14T13:48:28;1.77;;;1.20;;
65636;SDS011;52327;42.622;23.316;2023-03-14T13:53:51;1.48;;;1.10;;
65636;SDS011;52327;42.622;23.316;2023-03-14T13:56:18;1.73;;;1.00;;
65636;SDS011;52327;42.622;23.316;2023-03-14T13:58:45;1.20;;;0.88;;
65636;SDS011;52327;42.622;23.316;2023-03-14T14:01:24;1.63;;;1.00;;
65636;SDS011;52327;42.622;23.316;2023-03-14T14:03:52;1.90;;;1.08;;
65636;SDS011;52327;42.622;23.316;2023-03-14T14:06:27;2.25;;;1.10;;
65636;SDS011;52327;42.622;23.316;2023-03-14T14:08:54;1.30;;;0.93;;
65636;SDS011;52327;42.622;23.316;2023-03-14T14:11:43;2.42;;;1.10;;
65636;SDS011;52327;42.622;23.316;2023-03-14T14:14:14;1.65;;;0.95;;
65636;SDS011;52327;42.622;23.316;2023-03-14T14:16:49;1.98;;;1.10;;
65636;SDS011;52327;42.622;23.316;2023-03-14T14:19:15;3.40;;;1.30;;
65636;SDS011;52327;42.622;23.316;2023-03-14T14:21:43;2.03;;;0.90;;
65636;SDS011;52327;42.622;23.316;2023-03-14T14:24:16;1.58;;;0.88;;
65636;SDS011;52327;42.622;23.316;2023-03-14T14:26:51;4.60;;;1.35;;
65636;SDS011;52327;42.622;23.316;2023-03-14T14:29:26;1.60;;;0.82;;
65636;SDS011;52327;42.622;23.316;2023-03-14T14:32:26;1.50;;;0.90;;
65636;SDS011;52327;42.622;23.316;2023-03-14T14:35:06;1.70;;;1.02;;
65636;SDS011;52327;42.622;23.316;2023-03-14T14:37:32;1.77;;;0.98;;
65636;SDS011;52327;42.622;23.316;2023-03-14T14:40:00;1.20;;;0.93;;
65636;SDS011;52327;42.622;23.316;2023-03-14T14:42:51;2.25;;;0.88;;
65636;SDS011;52327;42.622;23.316;2023-03-14T14:45:18;1.88;;;1.00;;
65636;SDS011;52327;42.622;23.316;2023-03-14T14:47:49;3.63;;;2.13;;
65636;SDS011;52327;42.622;23.316;2023-03-14T14:50:29;4.13;;;1.67;;
65636;SDS011;52327;42.622;23.316;2023-03-14T14:52:58;2.42;;;1.08;;
65636;SDS011;52327;42.622;23.316;2023-03-14T14:55:30;0.85;;;0.75;;
65636;SDS011;52327;42.622;23.316;2023-03-14T14:57:58;1.55;;;1.13;;
65636;SDS011;52327;42.622;23.316;2023-03-14T15:00:39;8.05;;;1.42;;
65636;SDS011;52327;42.622;23.316;2023-03-14T15:03:10;2.28;;;0.80;;
65636;SDS011;52327;42.622;23.316;2023-03-14T15:05:39;1.10;;;1.00;;
65636;SDS011;52327;42.622;23.316;2023-03-14T15:08:09;1.23;;;0.85;;
65636;SDS011;52327;42.622;23.316;2023-03-14T15:10:35;1.55;;;0.93;;
65636;SDS011;52327;42.622;23.316;2023-03-14T15:13:00;1.27;;;0.90;;
65636;SDS011;52327;42.622;23.316;2023-03-14T15:15:26;2.70;;;0.90;;
65636;SDS011;52327;42.622;23.316;2023-03-14T15:17:51;2.13;;;1.27;;
65636;SDS011;52327;42.622;23.316;2023-03-14T15:20:17;2.08;;;1.27;;
65636;SDS011;52327;42.622;23.316;2023-03-14T15:22:44;2.50;;;1.20;;
65636;SDS011;52327;42.622;23.316;2023-03-14T15:25:11;2.78;;;1.33;;
65636;SDS011;52327;42.622;23.316;2023-03-14T15:27:37;1.42;;;1.10;;
65636;SDS011;52327;42.622;23.316;2023-03-14T15:30:09;2.78;;;1.27;;
65636;SDS011;52327;42.622;23.316;2023-03-14T15:32:38;2.13;;;1.30;;
65636;SDS011;52327;42.622;23.316;2023-03-14T15:35:04;1.38;;;1.00;;
65636;SDS011;52327;42.622;23.316;2023-03-14T15:37:30;3.50;;;1.30;;
65636;SDS011;52327;42.622;23.316;2023-03-14T15:39:55;1.65;;;1.00;;
65636;SDS011;52327;42.622;23.316;2023-03-14T15:42:23;2.25;;;1.08;;
65636;SDS011;52327;42.622;23.316;2023-03-14T15:44:48;1.85;;;1.13;;
65636;SDS011;52327;42.622;23.316;2023-03-14T15:47:14;1.45;;;0.88;;
65636;SDS011;52327;42.622;23.316;2023-03-14T15:49:39;2.90;;;1.30;;
65636;SDS011;52327;42.622;23.316;2023-03-14T15:52:05;1.67;;;0.95;;
65636;SDS011;52327;42.622;23.316;2023-03-14T15:54:32;1.02;;;0.47;;
65636;SDS011;52327;42.622;23.316;2023-03-14T15:56:59;2.22;;;0.90;;
65636;SDS011;52327;42.622;23.316;2023-03-14T15:59:24;1.50;;;1.15;;
65636;SDS011;52327;42.622;23.316;2023-03-14T16:01:50;1.38;;;0.80;;
65636;SDS011;52327;42.622;23.316;2023-03-14T16:04:15;1.05;;;0.75;;
65636;SDS011;52327;42.622;23.316;2023-03-14T16:06:41;2.33;;;1.10;;
65636;SDS011;52327;42.622;23.316;2023-03-14T16:09:08;1.15;;;0.80;;
65636;SDS011;52327;42.622;23.316;2023-03-14T16:11:34;2.67;;;1.33;;
65636;SDS011;52327;42.622;23.316;2023-03-14T16:13:59;1.73;;;0.95;;